Time,TemperatureF,DewpointF,PressureIn,WindDirection,WindDirectionDegrees,WindSpeedMPH,WindSpeedGustMPH,Humidity,HourlyPrecipIn,Conditions,Clouds,dailyrainin,SoftwareType,DateUTC
2013-04-05 08:44:00,44.4,43.9,27.85,ENE,68,1.3,1.3,98,0.00,,---,0.58,VWS V14.00,2013-04-05 12:44:00,
2013-04-05 08:45:00,44.4,43.9,27.85,NE,45,1.6,1.6,98,0.00,,---,0.00,VWS V14.00,2013-04-05 12:45:00,
2013-04-05 08:49:00,44.8,44.2,27.85,East,90,3.1,3.1,98,0.00,,---,0.00,VWS V14.00,2013-04-05 12:49:00,
2013-04-05 08:50:00,44.8,44.2,27.85,ESE,112,1.1,3.1,98,0.00,,---,0.00,VWS V14.00,2013-04-05 12:50:00,
2013-04-05 08:54:00,45.1,44.6,27.85,ENE,68,3.1,3.1,98,0.00,,---,0.00,VWS V14.00,2013-04-05 12:54:00,
2013-04-05 08:55:00,45.1,44.6,27.85,ESE,112,1.6,2.0,98,0.00,,---,0.00,VWS V14.00,2013-04-05 12:55:00,
2013-04-05 08:59:00,45.3,44.8,27.85,NE,45,1.6,2.2,98,0.00,,---,0.00,VWS V14.00,2013-04-05 12:59:00,
2013-04-05 09:00:00,45.3,44.8,27.85,South,180,2.5,2.5,98,0.00,,---,0.00,VWS V14.00,2013-04-05 13:00:00,
2013-04-05 09:04:00,45.3,44.8,27.85,ENE,68,1.6,1.6,98,0.00,,---,0.00,VWS V14.00,2013-04-05 13:04:00,
2013-04-05 09:05:00,45.3,44.8,27.85,ENE,68,1.6,1.6,98,0.00,,---,0.00,VWS V14.00,2013-04-05 13:05:00,
2013-04-05 09:09:00,46.2,45.7,27.85,East,90,2.9,2.9,98,0.00,,---,0.00,VWS V14.00,2013-04-05 13:09:00,
2013-04-05 09:10:00,46.2,45.7,27.85,East,90,2.9,2.9,98,0.00,,---,0.00,VWS V14.00,2013-04-05 13:10:00,
2013-04-05 09:11:00,46.4,45.9,27.85,East,90,2.5,2.5,98,0.00,,---,0.00,VWS V14.00,2013-04-05 13:11:00,
2013-04-05 09:14:00,46.4,45.9,27.85,NNE,22,3.6,3.6,98,0.00,,---,0.00,VWS V14.00,2013-04-05 13:14:00,
2013-04-05 09:15:00,46.4,45.9,27.85,NNE,22,3.6,3.6,98,0.00,,---,0.00,VWS V14.00,2013-04-05 13:15:00,
2013-04-05 09:16:00,46.4,45.9,27.85,SE,135,4.0,4.0,98,0.00,,---,0.00,VWS V14.00,2013-04-05 13:16:00,
2013-04-05 09:20:00,46.8,46.2,27.85,SSE,158,1.6,1.6,98,0.00,,---,0.00,VWS V14.00,2013-04-05 13:20:00,
2013-04-05 09:21:00,47.1,46.6,27.85,SSE,158,1.6,1.6,98,0.00,,---,0.00,VWS V14.00,2013-04-05 13:21:00,
2013-04-05 09:25:00,48.4,47.8,27.85,ESE,112,2.5,2.5,98,0.00,,---,0.00,VWS V14.00,2013-04-05 13:25:00,
2013-04-05 09:26:00,48.4,47.8,27.85,ESE,112,2.5,2.5,98,0.00,,---,0.00,VWS V14.00,2013-04-05 13:26:00,
2013-04-05 09:30:00,48.7,48.2,27.85,ESE,112,3.1,3.1,98,0.00,,---,0.00,VWS V14.00,2013-04-05 13:30:00,
2013-04-05 09:31:00,48.7,48.2,27.85,ESE,112,3.1,3.1,98,0.00,,---,0.00,VWS V14.00,2013-04-05 13:31:00,
2013-04-05 09:35:00,49.1,48.6,27.85,East,90,4.0,4.0,98,0.00,,---,0.00,VWS V14.00,2013-04-05 13:35:00,
2013-04-05 09:36:00,49.1,48.6,27.85,East,90,4.0,4.0,98,0.00,,---,0.00,VWS V14.00,2013-04-05 13:36:00,
2013-04-05 09:40:00,49.5,48.9,27.85,South,180,2.0,2.0,98,0.00,,---,0.00,VWS V14.00,2013-04-05 13:40:00,
2013-04-05 09:41:00,49.5,48.9,27.85,South,180,2.0,2.0,98,0.00,,---,0.00,VWS V14.00,2013-04-05 13:41:00,
2013-04-05 09:46:00,51.3,50.7,27.85,South,180,2.0,2.0,98,0.00,,---,0.00,VWS V14.00,2013-04-05 13:46:00,
2013-04-05 09:47:00,51.3,50.7,27.85,South,180,2.0,2.0,98,0.00,,---,0.00,VWS V14.00,2013-04-05 13:47:00,
2013-04-05 09:51:00,52.0,51.4,27.85,ESE,112,2.5,2.9,98,0.00,,---,0.00,VWS V14.00,2013-04-05 13:51:00,
2013-04-05 09:52:00,52.0,51.4,27.85,ESE,112,2.5,2.5,98,0.00,,---,0.00,VWS V14.00,2013-04-05 13:52:00,
2013-04-05 09:56:00,52.3,51.8,27.85,NNE,22,2.2,2.2,98,0.00,,---,0.00,VWS V14.00,2013-04-05 13:56:00,
2013-04-05 09:57:00,53.1,52.5,27.85,NNE,22,2.2,2.2,98,0.00,,---,0.00,VWS V14.00,2013-04-05 13:57:00,
2013-04-05 10:01:00,54.0,53.4,27.85,NNE,22,2.2,2.2,98,0.00,,---,0.00,VWS V14.00,2013-04-05 14:01:00,
2013-04-05 10:02:00,54.3,53.8,27.85,NNE,22,2.2,2.2,98,0.00,,---,0.00,VWS V14.00,2013-04-05 14:02:00,
2013-04-05 10:06:00,55.4,54.8,27.85,NNE,22,2.2,2.2,98,0.00,,---,0.00,VWS V14.00,2013-04-05 14:06:00,
2013-04-05 10:07:00,55.4,54.8,27.85,NNE,22,2.2,2.2,98,0.00,,---,0.00,VWS V14.00,2013-04-05 14:07:00,
2013-04-05 10:08:00,55.4,54.8,27.85,NNE,22,2.2,2.2,98,0.00,,---,0.00,VWS V14.00,2013-04-05 14:08:00,
2013-04-05 10:11:00,56.3,55.8,27.85,East,90,2.7,2.7,98,0.00,,---,0.00,VWS V14.00,2013-04-05 14:11:00,
2013-04-05 10:12:00,56.3,55.8,27.85,East,90,2.7,2.7,98,0.00,,---,0.00,VWS V14.00,2013-04-05 14:12:00,
2013-04-05 10:13:00,56.3,55.8,27.85,East,90,2.7,2.7,98,0.00,,---,0.00,VWS V14.00,2013-04-05 14:13:00,
2013-04-05 10:17:00,56.5,55.6,27.85,ENE,68,3.6,3.6,97,0.00,,---,0.00,VWS V14.00,2013-04-05 14:17:00,
2013-04-05 10:18:00,56.3,55.5,27.85,ENE,68,3.6,3.6,97,0.00,,---,0.00,VWS V14.00,2013-04-05 14:18:00,
2013-04-05 10:22:00,57.0,55.9,27.85,ENE,68,3.6,3.6,96,0.00,,---,0.00,VWS V14.00,2013-04-05 14:22:00,
2013-04-05 10:23:00,56.8,55.4,27.85,East,90,2.9,3.6,95,0.00,,---,0.00,VWS V14.00,2013-04-05 14:23:00,
2013-04-05 10:27:00,57.7,56.0,27.85,East,90,2.7,2.7,94,0.00,,---,0.00,VWS V14.00,2013-04-05 14:27:00,
2013-04-05 10:28:00,57.2,55.2,27.85,NE,45,5.8,5.8,93,0.00,,---,0.00,VWS V14.00,2013-04-05 14:28:00,
2013-04-05 10:32:00,57.2,55.2,27.85,NE,45,2.9,2.9,93,0.00,,---,0.00,VWS V14.00,2013-04-05 14:32:00,
2013-04-05 10:33:00,57.2,55.2,27.85,NE,45,2.9,2.9,93,0.00,,---,0.00,VWS V14.00,2013-04-05 14:33:00,
2013-04-05 10:34:00,56.5,54.5,27.85,NE,45,2.9,2.9,93,0.00,,---,0.00,VWS V14.00,2013-04-05 14:34:00,
2013-04-05 10:35:00,56.3,54.3,27.85,NE,45,2.9,2.9,93,0.00,,---,0.00,VWS V14.00,2013-04-05 14:35:00,
2013-04-05 10:37:00,56.5,54.5,27.85,NE,45,2.9,2.9,93,0.00,,---,0.00,VWS V14.00,2013-04-05 14:37:00,
2013-04-05 10:38:00,56.5,54.5,27.85,NE,45,2.9,2.9,93,0.00,,---,0.00,VWS V14.00,2013-04-05 14:38:00,
2013-04-05 10:40:00,56.3,54.0,27.85,NE,45,2.9,2.9,92,0.00,,---,0.00,VWS V14.00,2013-04-05 14:40:00,
2013-04-05 10:42:00,55.6,53.3,27.85,NE,45,2.9,2.9,92,0.00,,---,0.00,VWS V14.00,2013-04-05 14:42:00,
2013-04-05 10:43:00,55.6,53.3,27.85,NE,45,2.9,2.9,92,0.00,,---,0.00,VWS V14.00,2013-04-05 14:43:00,
2013-04-05 10:45:00,55.8,53.5,27.85,NE,45,1.1,1.1,92,0.00,,---,0.00,VWS V14.00,2013-04-05 14:45:00,
2013-04-05 10:47:00,55.8,53.2,27.85,South,180,3.6,3.6,91,0.00,,---,0.00,VWS V14.00,2013-04-05 14:47:00,
2013-04-05 10:50:00,55.4,52.5,27.85,NNE,22,1.6,1.6,90,0.00,,---,0.00,VWS V14.00,2013-04-05 14:50:00,
2013-04-05 10:53:00,56.7,54.1,27.85,NE,45,4.0,4.0,91,0.00,,---,0.00,VWS V14.00,2013-04-05 14:53:00,
2013-04-05 10:55:00,56.7,54.1,27.85,NE,45,2.0,6.0,91,0.00,,---,0.00,VWS V14.00,2013-04-05 14:55:00,
2013-04-05 10:57:00,57.9,55.0,27.85,NE,45,3.6,3.6,90,0.00,,---,0.00,VWS V14.00,2013-04-05 14:57:00,
2013-04-05 10:58:00,57.4,53.9,27.85,East,90,2.7,2.7,88,0.00,,---,0.00,VWS V14.00,2013-04-05 14:58:00,
2013-04-05 11:00:00,57.4,53.2,27.85,ESE,112,3.4,3.4,86,0.00,,---,0.00,VWS V14.00,2013-04-05 15:00:00,
2013-04-05 11:02:00,57.4,53.2,27.85,ESE,112,6.3,6.3,86,0.00,,---,0.00,VWS V14.00,2013-04-05 15:02:00,
2013-04-05 11:03:00,57.7,53.6,27.85,ESE,112,6.3,6.3,86,0.00,,---,0.00,VWS V14.00,2013-04-05 15:03:00,
2013-04-05 11:05:00,58.5,54.0,27.85,ENE,68,4.0,4.0,85,0.00,,---,0.00,VWS V14.00,2013-04-05 15:05:00,
2013-04-05 11:07:00,58.5,54.0,27.85,ESE,112,5.8,5.8,85,0.00,,---,0.00,VWS V14.00,2013-04-05 15:07:00,
2013-04-05 11:09:00,59.4,54.9,27.85,NE,45,1.6,4.0,85,0.00,,---,0.00,VWS V14.00,2013-04-05 15:09:00,
2013-04-05 11:10:00,59.5,54.4,27.85,ESE,112,7.2,7.2,83,0.00,,---,0.00,VWS V14.00,2013-04-05 15:10:00,
2013-04-05 11:11:00,59.5,54.4,27.85,ENE,68,4.9,7.2,83,0.00,,---,0.00,VWS V14.00,2013-04-05 15:11:00,
2013-04-05 11:13:00,59.4,53.5,27.85,ESE,112,2.9,2.9,81,0.00,,---,0.00,VWS V14.00,2013-04-05 15:13:00,
2013-04-05 11:15:00,59.0,52.8,27.85,ESE,112,2.9,2.9,80,0.00,,---,0.00,VWS V14.00,2013-04-05 15:15:00,
2013-04-05 11:16:00,59.4,53.2,27.85,NE,45,5.8,5.8,80,0.00,,---,0.00,VWS V14.00,2013-04-05 15:16:00,
2013-04-05 11:17:00,59.4,53.2,27.85,NE,45,5.8,5.8,80,0.00,,---,0.00,VWS V14.00,2013-04-05 15:17:00,
2013-04-05 11:18:00,59.5,53.0,27.85,ESE,112,3.4,5.8,79,0.00,,---,0.00,VWS V14.00,2013-04-05 15:18:00,
2013-04-05 11:20:00,59.5,53.0,27.85,ENE,68,5.4,5.4,79,0.00,,---,0.00,VWS V14.00,2013-04-05 15:20:00,
2013-04-05 11:21:00,59.5,53.0,27.85,ENE,68,5.4,5.4,79,0.00,,---,0.00,VWS V14.00,2013-04-05 15:21:00,
2013-04-05 11:22:00,59.5,53.0,27.85,NE,45,4.3,4.3,79,0.00,,---,0.00,VWS V14.00,2013-04-05 15:22:00,
2013-04-05 11:24:00,60.6,54.1,27.85,NE,45,2.0,4.0,79,0.00,,---,0.00,VWS V14.00,2013-04-05 15:24:00,
2013-04-05 11:25:00,60.6,54.1,27.85,NE,45,2.0,2.0,79,0.00,,---,0.00,VWS V14.00,2013-04-05 15:25:00,
2013-04-05 11:26:00,61.0,53.4,27.85,South,180,2.5,2.5,76,0.00,,---,0.00,VWS V14.00,2013-04-05 15:26:00,
2013-04-05 11:27:00,61.0,53.4,27.85,East,90,4.9,4.9,76,0.00,,---,0.00,VWS V14.00,2013-04-05 15:27:00,
2013-04-05 11:30:00,61.3,52.2,27.85,SW,225,2.7,3.4,72,0.00,,---,0.00,VWS V14.00,2013-04-05 15:30:00,
2013-04-05 11:31:00,61.3,52.2,27.85,SW,225,2.7,2.7,72,0.00,,---,0.00,VWS V14.00,2013-04-05 15:31:00,
2013-04-05 11:32:00,61.3,52.2,27.85,SW,225,2.7,2.7,72,0.00,,---,0.00,VWS V14.00,2013-04-05 15:32:00,
2013-04-05 11:35:00,61.5,53.2,27.85,SSE,158,2.7,4.7,74,0.00,,---,0.00,VWS V14.00,2013-04-05 15:35:00,
2013-04-05 11:37:00,62.6,54.2,27.85,SSE,158,2.7,2.7,74,0.00,,---,0.00,VWS V14.00,2013-04-05 15:37:00,
2013-04-05 11:40:00,62.6,53.1,27.88,East,90,3.1,3.1,71,0.00,,---,0.00,VWS V14.00,2013-04-05 15:40:00,
2013-04-05 11:41:00,62.6,53.1,27.88,NE,45,5.4,5.4,71,0.00,,---,0.00,VWS V14.00,2013-04-05 15:41:00,
2013-04-05 11:42:00,62.6,53.1,27.88,ESE,112,5.4,5.4,71,0.00,,---,0.00,VWS V14.00,2013-04-05 15:42:00,
2013-04-05 11:45:00,61.9,50.0,27.88,ESE,112,4.0,7.4,65,0.00,,---,0.00,VWS V14.00,2013-04-05 15:45:00,
2013-04-05 11:46:00,61.9,50.0,27.88,ESE,112,4.0,4.0,65,0.00,,---,0.00,VWS V14.00,2013-04-05 15:46:00,
2013-04-05 11:47:00,61.9,50.0,27.88,ESE,112,3.4,4.0,65,0.00,,---,0.00,VWS V14.00,2013-04-05 15:47:00,
2013-04-05 11:51:00,62.8,50.8,27.88,SE,135,8.1,8.1,65,0.00,,---,0.00,VWS V14.00,2013-04-05 15:51:00,
2013-04-05 11:52:00,62.8,50.8,27.88,East,90,2.0,2.9,65,0.00,,---,0.00,VWS V14.00,2013-04-05 15:52:00,
2013-04-05 11:53:00,63.5,52.0,27.88,NNE,22,6.3,6.3,66,0.00,,---,0.00,VWS V14.00,2013-04-05 15:53:00,
2013-04-05 11:56:00,62.6,48.5,27.88,NNE,22,6.3,6.3,60,0.00,,---,0.00,VWS V14.00,2013-04-05 15:56:00,